sensor_id;sensor_type;location;lat;lon;timestamp;P1;durP1;ratioP1;P2;durP2;ratioP2
15381;SDS011;7789;51.364;12.358;2022-12-26T00:00:58;5.10;;;1.63;;
15381;SDS011;7789;51.364;12.358;2022-12-26T00:06:10;2.73;;;1.60;;
15381;SDS011;7789;51.364;12.358;2022-12-26T00:11:20;2.90;;;1.85;;
15381;SDS011;7789;51.364;12.358;2022-12-26T00:16:33;3.00;;;1.70;;
15381;SDS011;7789;51.364;12.358;2022-12-26T00:21:38;6.77;;;2.10;;
15381;SDS011;7789;51.364;12.358;2022-12-26T00:26:47;1.93;;;1.70;;
15381;SDS011;7789;51.364;12.358;2022-12-26T00:31:54;4.90;;;2.20;;
15381;SDS011;7789;51.364;12.358;2022-12-26T00:36:59;2.57;;;1.80;;
15381;SDS011;7789;51.364;12.358;2022-12-26T00:42:05;2.93;;;2.37;;
15381;SDS011;7789;51.364;12.358;2022-12-26T00:47:14;2.60;;;1.90;;
15381;SDS011;7789;51.364;12.358;2022-12-26T00:52:21;2.93;;;2.17;;
15381;SDS011;7789;51.364;12.358;2022-12-26T00:57:26;5.47;;;2.07;;
15381;SDS011;7789;51.364;12.358;2022-12-26T01:02:44;3.30;;;2.40;;
15381;SDS011;7789;51.364;12.358;2022-12-26T01:07:56;3.57;;;1.70;;
15381;SDS011;7789;51.364;12.358;2022-12-26T01:13:22;3.67;;;2.43;;
15381;SDS011;7789;51.364;12.358;2022-12-26T01:18:28;4.77;;;2.43;;
15381;SDS011;7789;51.364;12.358;2022-12-26T01:23:33;2.43;;;2.07;;
15381;SDS011;7789;51.364;12.358;2022-12-26T01:28:43;4.60;;;2.23;;
15381;SDS011;7789;51.364;12.358;2022-12-26T01:34:02;2.40;;;2.00;;
15381;SDS011;7789;51.364;12.358;2022-12-26T01:39:12;2.83;;;1.90;;
15381;SDS011;7789;51.364;12.358;2022-12-26T01:50:05;4.40;;;2.53;;
15381;SDS011;7789;51.364;12.358;2022-12-26T01:55:18;4.17;;;2.27;;
15381;SDS011;7789;51.364;12.358;2022-12-26T02:00:27;2.83;;;1.87;;
15381;SDS011;7789;51.364;12.358;2022-12-26T02:05:40;3.33;;;2.00;;
15381;SDS011;7789;51.364;12.358;2022-12-26T02:10:48;3.20;;;2.20;;
15381;SDS011;7789;51.364;12.358;2022-12-26T02:16:14;1.93;;;1.60;;
15381;SDS011;7789;51.364;12.358;2022-12-26T02:27:04;2.33;;;1.80;;
15381;SDS011;7789;51.364;12.358;2022-12-26T02:32:24;3.80;;;2.10;;
15381;SDS011;7789;51.364;12.358;2022-12-26T02:37:55;3.43;;;1.70;;
15381;SDS011;7789;51.364;12.358;2022-12-26T02:43:15;2.13;;;1.80;;
15381;SDS011;7789;51.364;12.358;2022-12-26T02:48:33;1.90;;;1.63;;
15381;SDS011;7789;51.364;12.358;2022-12-26T02:53:47;3.57;;;2.30;;
15381;SDS011;7789;51.364;12.358;2022-12-26T02:59:21;3.40;;;1.80;;
15381;SDS011;7789;51.364;12.358;2022-12-26T03:05:00;2.90;;;2.00;;
15381;SDS011;7789;51.364;12.358;2022-12-26T03:10:27;2.20;;;1.80;;
15381;SDS011;7789;51.364;12.358;2022-12-26T03:15:52;2.47;;;1.90;;
15381;SDS011;7789;51.364;12.358;2022-12-26T03:21:20;3.37;;;1.73;;
15381;SDS011;7789;51.364;12.358;2022-12-26T03:26:29;2.97;;;2.00;;
15381;SDS011;7789;51.364;12.358;2022-12-26T03:31:44;2.83;;;1.83;;
15381;SDS011;7789;51.364;12.358;2022-12-26T03:37:04;2.50;;;2.00;;
15381;SDS011;7789;51.364;12.358;2022-12-26T03:42:26;3.87;;;2.10;;
15381;SDS011;7789;51.364;12.358;2022-12-26T03:47:54;2.27;;;1.97;;
15381;SDS011;7789;51.364;12.358;2022-12-26T03:53:29;3.17;;;1.90;;
15381;SDS011;7789;51.364;12.358;2022-12-26T03:58:56;3.47;;;2.00;;
15381;SDS011;7789;51.364;12.358;2022-12-26T04:04:24;2.30;;;1.77;;
15381;SDS011;7789;51.364;12.358;2022-12-26T04:09:53;2.00;;;1.80;;
15381;SDS011;7789;51.364;12.358;2022-12-26T04:15:23;2.43;;;1.90;;
15381;SDS011;7789;51.364;12.358;2022-12-26T04:21:08;2.60;;;1.73;;
15381;SDS011;7789;51.364;12.358;2022-12-26T04:26:37;3.30;;;1.87;;
15381;SDS011;7789;51.364;12.358;2022-12-26T04:32:07;4.00;;;2.10;;
15381;SDS011;7789;51.364;12.358;2022-12-26T04:37:34;4.53;;;1.93;;
15381;SDS011;7789;51.364;12.358;2022-12-26T04:43:09;4.57;;;1.93;;
15381;SDS011;7789;51.364;12.358;2022-12-26T04:48:55;4.30;;;2.00;;
15381;SDS011;7789;51.364;12.358;2022-12-26T04:54:23;3.03;;;2.07;;
15381;SDS011;7789;51.364;12.358;2022-12-26T04:59:33;3.77;;;2.10;;
15381;SDS011;7789;51.364;12.358;2022-12-26T05:04:42;2.93;;;2.00;;
15381;SDS011;7789;51.364;12.358;2022-12-26T05:10:07;6.47;;;2.17;;
15381;SDS011;7789;51.364;12.358;2022-12-26T05:15:22;3.00;;;2.00;;
15381;SDS011;7789;51.364;12.358;2022-12-26T05:20:37;3.93;;;2.27;;
15381;SDS011;7789;51.364;12.358;2022-12-26T05:26:03;2.17;;;1.70;;
15381;SDS011;7789;51.364;12.358;2022-12-26T05:31:42;3.03;;;2.00;;
15381;SDS011;7789;51.364;12.358;2022-12-26T05:36:57;2.80;;;2.10;;
15381;SDS011;7789;51.364;12.358;2022-12-26T05:42:16;4.30;;;2.17;;
15381;SDS011;7789;51.364;12.358;2022-12-26T05:47:31;4.43;;;1.90;;
15381;SDS011;7789;51.364;12.358;2022-12-26T05:52:41;1.93;;;1.60;;
15381;SDS011;7789;51.364;12.358;2022-12-26T05:57:46;2.93;;;1.73;;
15381;SDS011;7789;51.364;12.358;2022-12-26T06:08:45;3.20;;;1.83;;
15381;SDS011;7789;51.364;12.358;2022-12-26T06:13:54;3.27;;;1.83;;
15381;SDS011;7789;51.364;12.358;2022-12-26T06:24:27;2.50;;;1.87;;
15381;SDS011;7789;51.364;12.358;2022-12-26T06:29:37;2.47;;;1.70;;
15381;SDS011;7789;51.364;12.358;2022-12-26T06:34:52;3.20;;;1.67;;
15381;SDS011;7789;51.364;12.358;2022-12-26T06:40:02;3.87;;;1.97;;
15381;SDS011;7789;51.364;12.358;2022-12-26T06:45:08;4.23;;;1.77;;
15381;SDS011;7789;51.364;12.358;2022-12-26T06:50:23;3.17;;;1.90;;
15381;SDS011;7789;51.364;12.358;2022-12-26T06:55:37;2.37;;;1.87;;
15381;SDS011;7789;51.364;12.358;2022-12-26T07:01:18;2.40;;;1.83;;
15381;SDS011;7789;51.364;12.358;2022-12-26T07:06:25;2.20;;;1.83;;
15381;SDS011;7789;51.364;12.358;2022-12-26T07:11:34;2.83;;;2.00;;
15381;SDS011;7789;51.364;12.358;2022-12-26T07:16:40;4.30;;;2.13;;
15381;SDS011;7789;51.364;12.358;2022-12-26T07:21:49;2.77;;;1.97;;
15381;SDS011;7789;51.364;12.358;2022-12-26T07:26:58;4.17;;;2.20;;
15381;SDS011;7789;51.364;12.358;2022-12-26T07:32:05;2.80;;;2.07;;
15381;SDS011;7789;51.364;12.358;2022-12-26T07:37:11;3.27;;;2.00;;
15381;SDS011;7789;51.364;12.358;2022-12-26T07:42:20;3.13;;;2.27;;
15381;SDS011;7789;51.364;12.358;2022-12-26T07:47:29;2.93;;;2.40;;
15381;SDS011;7789;51.364;12.358;2022-12-26T07:52:36;2.60;;;2.13;;
15381;SDS011;7789;51.364;12.358;2022-12-26T07:57:42;3.90;;;2.10;;
15381;SDS011;7789;51.364;12.358;2022-12-26T08:02:59;2.83;;;2.13;;
15381;SDS011;7789;51.364;12.358;2022-12-26T08:08:16;3.17;;;2.00;;
15381;SDS011;7789;51.364;12.358;2022-12-26T08:13:28;3.50;;;1.83;;
15381;SDS011;7789;51.364;12.358;2022-12-26T08:18:41;2.53;;;1.70;;
15381;SDS011;7789;51.364;12.358;2022-12-26T08:23:51;4.57;;;2.00;;
15381;SDS011;7789;51.364;12.358;2022-12-26T08:29:07;3.03;;;2.37;;
15381;SDS011;7789;51.364;12.358;2022-12-26T08:34:18;4.50;;;1.77;;
15381;SDS011;7789;51.364;12.358;2022-12-26T08:44:47;2.30;;;1.80;;
15381;SDS011;7789;51.364;12.358;2022-12-26T08:50:12;2.28;;;1.85;;
15381;SDS011;7789;51.364;12.358;2022-12-26T09:01:05;4.18;;;2.70;;
15381;SDS011;7789;51.364;12.358;2022-12-26T09:06:12;5.60;;;2.00;;
15381;SDS011;7789;51.364;12.358;2022-12-26T09:11:19;2.13;;;1.67;;
15381;SDS011;7789;51.364;12.358;2022-12-26T09:16:27;3.43;;;2.00;;
15381;SDS011;7789;51.364;12.358;2022-12-26T09:21:41;5.27;;;2.00;;
15381;SDS011;7789;51.364;12.358;2022-12-26T09:26:49;4.80;;;2.10;;
15381;SDS011;7789;51.364;12.358;2022-12-26T09:32:03;3.22;;;1.83;;
15381;SDS011;7789;51.364;12.358;2022-12-26T09:37:09;7.00;;;3.10;;
15381;SDS011;7789;51.364;12.358;2022-12-26T09:42:22;3.30;;;2.00;;
15381;SDS011;7789;51.364;12.358;2022-12-26T09:47:36;3.78;;;1.75;;
15381;SDS011;7789;51.364;12.358;2022-12-26T09:52:51;2.87;;;1.90;;
15381;SDS011;7789;51.364;12.358;2022-12-26T09:58:01;3.42;;;1.80;;
15381;SDS011;7789;51.364;12.358;2022-12-26T10:03:13;3.38;;;1.50;;
15381;SDS011;7789;51.364;12.358;2022-12-26T10:08:21;4.07;;;3.10;;
15381;SDS011;7789;51.364;12.358;2022-12-26T10:13:35;4.20;;;1.90;;
15381;SDS011;7789;51.364;12.358;2022-12-26T10:18:52;3.67;;;1.90;;
15381;SDS011;7789;51.364;12.358;2022-12-26T10:24:11;2.50;;;1.80;;
15381;SDS011;7789;51.364;12.358;2022-12-26T10:29:25;5.28;;;2.22;;
15381;SDS011;7789;51.364;12.358;2022-12-26T10:34:38;2.60;;;1.65;;
15381;SDS011;7789;51.364;12.358;2022-12-26T10:39:44;3.17;;;2.20;;
15381;SDS011;7789;51.364;12.358;2022-12-26T10:44:52;3.20;;;2.42;;
15381;SDS011;7789;51.364;12.358;2022-12-26T10:50:00;3.80;;;2.63;;
15381;SDS011;7789;51.364;12.358;2022-12-26T10:55:05;5.53;;;2.63;;
15381;SDS011;7789;51.364;12.358;2022-12-26T11:00:28;4.93;;;3.27;;
15381;SDS011;7789;51.364;12.358;2022-12-26T11:05:36;4.22;;;2.65;;
15381;SDS011;7789;51.364;12.358;2022-12-26T11:11:10;6.53;;;3.10;;
15381;SDS011;7789;51.364;12.358;2022-12-26T11:16:28;2.90;;;1.60;;
15381;SDS011;7789;51.364;12.358;2022-12-26T11:21:37;2.00;;;1.23;;
15381;SDS011;7789;51.364;12.358;2022-12-26T11:26:45;4.90;;;1.40;;
15381;SDS011;7789;51.364;12.358;2022-12-26T11:31:58;3.70;;;1.40;;
15381;SDS011;7789;51.364;12.358;2022-12-26T11:37:18;2.10;;;1.53;;
15381;SDS011;7789;51.364;12.358;2022-12-26T11:42:28;2.80;;;1.43;;
15381;SDS011;7789;51.364;12.358;2022-12-26T11:47:37;2.23;;;1.67;;
15381;SDS011;7789;51.364;12.358;2022-12-26T11:53:04;3.47;;;2.03;;
15381;SDS011;7789;51.364;12.358;2022-12-26T11:58:21;2.73;;;1.80;;
15381;SDS011;7789;51.364;12.358;2022-12-26T12:03:29;3.53;;;2.13;;
15381;SDS011;7789;51.364;12.358;2022-12-26T12:08:57;2.10;;;1.90;;
15381;SDS011;7789;51.364;12.358;2022-12-26T12:14:16;5.13;;;1.67;;
15381;SDS011;7789;51.364;12.358;2022-12-26T12:19:44;2.20;;;1.50;;
15381;SDS011;7789;51.364;12.358;2022-12-26T12:25:04;1.67;;;1.20;;
15381;SDS011;7789;51.364;12.358;2022-12-26T12:30:21;1.10;;;0.90;;
15381;SDS011;7789;51.364;12.358;2022-12-26T12:35:42;1.20;;;0.90;;
15381;SDS011;7789;51.364;12.358;2022-12-26T12:41:00;0.80;;;0.70;;
15381;SDS011;7789;51.364;12.358;2022-12-26T12:46:26;2.23;;;1.07;;
15381;SDS011;7789;51.364;12.358;2022-12-26T12:51:47;0.87;;;0.60;;
15381;SDS011;7789;51.364;12.358;2022-12-26T12:57:03;1.70;;;0.67;;
15381;SDS011;7789;51.364;12.358;2022-12-26T13:02:14;1.27;;;0.70;;
15381;SDS011;7789;51.364;12.358;2022-12-26T13:07:26;0.63;;;0.60;;
15381;SDS011;7789;51.364;12.358;2022-12-26T13:12:50;0.53;;;0.50;;
15381;SDS011;7789;51.364;12.358;2022-12-26T13:17:59;1.33;;;0.60;;
15381;SDS011;7789;51.364;12.358;2022-12-26T13:23:13;1.10;;;0.80;;
15381;SDS011;7789;51.364;12.358;2022-12-26T13:28:44;1.80;;;0.80;;
15381;SDS011;7789;51.364;12.358;2022-12-26T13:34:00;1.30;;;0.80;;
15381;SDS011;7789;51.364;12.358;2022-12-26T13:44:42;1.27;;;1.00;;
15381;SDS011;7789;51.364;12.358;2022-12-26T13:49:53;0.80;;;0.70;;
15381;SDS011;7789;51.364;12.358;2022-12-26T13:55:18;0.70;;;0.70;;
15381;SDS011;7789;51.364;12.358;2022-12-26T14:11:55;1.47;;;0.80;;
15381;SDS011;7789;51.364;12.358;2022-12-26T14:17:18;1.67;;;0.93;;
15381;SDS011;7789;51.364;12.358;2022-12-26T14:22:39;3.27;;;1.50;;
15381;SDS011;7789;51.364;12.358;2022-12-26T14:27:57;1.37;;;1.27;;
15381;SDS011;7789;51.364;12.358;2022-12-26T14:33:20;1.43;;;1.33;;
15381;SDS011;7789;51.364;12.358;2022-12-26T14:38:37;1.77;;;1.30;;
15381;SDS011;7789;51.364;12.358;2022-12-26T14:43:51;3.40;;;3.10;;
15381;SDS011;7789;51.364;12.358;2022-12-26T14:54:35;3.40;;;1.50;;
15381;SDS011;7789;51.364;12.358;2022-12-26T15:00:12;1.17;;;1.00;;
15381;SDS011;7789;51.364;12.358;2022-12-26T15:06:00;2.87;;;2.20;;
15381;SDS011;7789;51.364;12.358;2022-12-26T15:11:48;1.50;;;0.90;;
15381;SDS011;7789;51.364;12.358;2022-12-26T15:17:10;2.87;;;2.27;;
15381;SDS011;7789;51.364;12.358;2022-12-26T15:22:31;2.97;;;2.00;;
15381;SDS011;7789;51.364;12.358;2022-12-26T15:28:02;2.27;;;1.80;;
15381;SDS011;7789;51.364;12.358;2022-12-26T15:33:37;3.17;;;2.57;;
15381;SDS011;7789;51.364;12.358;2022-12-26T15:38:54;1.93;;;1.60;;
15381;SDS011;7789;51.364;12.358;2022-12-26T15:44:12;2.60;;;1.60;;
15381;SDS011;7789;51.364;12.358;2022-12-26T15:49:41;4.73;;;3.40;;
15381;SDS011;7789;51.364;12.358;2022-12-26T15:55:18;3.57;;;1.97;;
15381;SDS011;7789;51.364;12.358;2022-12-26T16:00:37;1.80;;;1.30;;
15381;SDS011;7789;51.364;12.358;2022-12-26T16:05:57;1.83;;;1.20;;
15381;SDS011;7789;51.364;12.358;2022-12-26T16:11:15;2.13;;;1.30;;
15381;SDS011;7789;51.364;12.358;2022-12-26T16:16:26;2.23;;;1.50;;
15381;SDS011;7789;51.364;12.358;2022-12-26T16:21:39;3.17;;;1.83;;
15381;SDS011;7789;51.364;12.358;2022-12-26T16:27:02;3.43;;;1.40;;
15381;SDS011;7789;51.364;12.358;2022-12-26T16:32:11;3.67;;;1.90;;
15381;SDS011;7789;51.364;12.358;2022-12-26T16:37:20;3.93;;;2.43;;
15381;SDS011;7789;51.364;12.358;2022-12-26T16:42:29;2.70;;;1.87;;
15381;SDS011;7789;51.364;12.358;2022-12-26T16:47:41;3.03;;;2.40;;
15381;SDS011;7789;51.364;12.358;2022-12-26T16:52:47;2.50;;;2.30;;
15381;SDS011;7789;51.364;12.358;2022-12-26T16:57:58;3.50;;;2.80;;
15381;SDS011;7789;51.364;12.358;2022-12-26T17:03:07;4.17;;;2.43;;
15381;SDS011;7789;51.364;12.358;2022-12-26T17:08:34;3.90;;;2.40;;
15381;SDS011;7789;51.364;12.358;2022-12-26T17:13:49;2.93;;;2.30;;
15381;SDS011;7789;51.364;12.358;2022-12-26T17:18:56;5.80;;;2.47;;
15381;SDS011;7789;51.364;12.358;2022-12-26T17:24:22;3.97;;;2.77;;
15381;SDS011;7789;51.364;12.358;2022-12-26T17:29:44;3.00;;;2.43;;
15381;SDS011;7789;51.364;12.358;2022-12-26T17:34:52;4.03;;;3.20;;
15381;SDS011;7789;51.364;12.358;2022-12-26T17:40:01;4.13;;;2.20;;
15381;SDS011;7789;51.364;12.358;2022-12-26T17:45:15;3.40;;;2.23;;
15381;SDS011;7789;51.364;12.358;2022-12-26T17:50:28;2.70;;;2.20;;
15381;SDS011;7789;51.364;12.358;2022-12-26T17:55:38;2.60;;;2.03;;
15381;SDS011;7789;51.364;12.358;2022-12-26T18:00:46;3.40;;;2.50;;
15381;SDS011;7789;51.364;12.358;2022-12-26T18:05:57;3.03;;;2.63;;
15381;SDS011;7789;51.364;12.358;2022-12-26T18:11:06;4.90;;;2.30;;
15381;SDS011;7789;51.364;12.358;2022-12-26T18:16:17;2.93;;;1.73;;
15381;SDS011;7789;51.364;12.358;2022-12-26T18:21:27;2.40;;;2.10;;
15381;SDS011;7789;51.364;12.358;2022-12-26T18:26:34;2.43;;;1.60;;
15381;SDS011;7789;51.364;12.358;2022-12-26T18:31:43;2.00;;;1.20;;
15381;SDS011;7789;51.364;12.358;2022-12-26T18:36:50;3.00;;;1.30;;
15381;SDS011;7789;51.364;12.358;2022-12-26T18:41:56;4.13;;;1.80;;
15381;SDS011;7789;51.364;12.358;2022-12-26T18:47:05;2.43;;;1.77;;
15381;SDS011;7789;51.364;12.358;2022-12-26T18:52:15;3.73;;;2.17;;
15381;SDS011;7789;51.364;12.358;2022-12-26T18:57:22;5.07;;;1.70;;
15381;SDS011;7789;51.364;12.358;2022-12-26T19:02:32;2.07;;;1.53;;
15381;SDS011;7789;51.364;12.358;2022-12-26T19:07:38;2.80;;;1.93;;
15381;SDS011;7789;51.364;12.358;2022-12-26T19:12:43;2.33;;;1.87;;
15381;SDS011;7789;51.364;12.358;2022-12-26T19:17:53;3.30;;;2.03;;
15381;SDS011;7789;51.364;12.358;2022-12-26T19:23:08;3.37;;;2.27;;
15381;SDS011;7789;51.364;12.358;2022-12-26T19:34:00;4.20;;;2.47;;
15381;SDS011;7789;51.364;12.358;2022-12-26T19:39:04;5.00;;;2.80;;
15381;SDS011;7789;51.364;12.358;2022-12-26T19:44:24;5.80;;;3.00;;
15381;SDS011;7789;51.364;12.358;2022-12-26T19:49:32;4.07;;;2.70;;
15381;SDS011;7789;51.364;12.358;2022-12-26T19:54:40;6.30;;;2.70;;
15381;SDS011;7789;51.364;12.358;2022-12-26T19:59:51;5.37;;;2.50;;
15381;SDS011;7789;51.364;12.358;2022-12-26T20:04:59;6.10;;;2.70;;
15381;SDS011;7789;51.364;12.358;2022-12-26T20:10:08;5.73;;;2.33;;
15381;SDS011;7789;51.364;12.358;2022-12-26T20:15:13;4.80;;;2.50;;
15381;SDS011;7789;51.364;12.358;2022-12-26T20:20:20;6.37;;;1.80;;
15381;SDS011;7789;51.364;12.358;2022-12-26T20:25:25;3.47;;;1.60;;
15381;SDS011;7789;51.364;12.358;2022-12-26T20:30:30;4.10;;;1.30;;
15381;SDS011;7789;51.364;12.358;2022-12-26T20:35:46;3.23;;;1.47;;
15381;SDS011;7789;51.364;12.358;2022-12-26T20:40:51;4.93;;;1.60;;
15381;SDS011;7789;51.364;12.358;2022-12-26T20:45:57;6.80;;;1.73;;
15381;SDS011;7789;51.364;12.358;2022-12-26T20:51:14;7.03;;;1.90;;
15381;SDS011;7789;51.364;12.358;2022-12-26T20:56:26;2.67;;;1.57;;
15381;SDS011;7789;51.364;12.358;2022-12-26T21:01:32;3.57;;;1.40;;
15381;SDS011;7789;51.364;12.358;2022-12-26T21:06:41;8.20;;;2.20;;
15381;SDS011;7789;51.364;12.358;2022-12-26T21:11:52;4.30;;;1.53;;
15381;SDS011;7789;51.364;12.358;2022-12-26T21:17:02;8.60;;;1.70;;
15381;SDS011;7789;51.364;12.358;2022-12-26T21:27:43;9.33;;;2.10;;
15381;SDS011;7789;51.364;12.358;2022-12-26T21:32:50;4.00;;;1.70;;
15381;SDS011;7789;51.364;12.358;2022-12-26T21:37:59;5.03;;;1.77;;
15381;SDS011;7789;51.364;12.358;2022-12-26T21:43:07;5.83;;;1.87;;
15381;SDS011;7789;51.364;12.358;2022-12-26T21:48:15;3.37;;;1.67;;
15381;SDS011;7789;51.364;12.358;2022-12-26T21:53:22;6.60;;;1.77;;
15381;SDS011;7789;51.364;12.358;2022-12-26T21:58:31;5.60;;;1.47;;
15381;SDS011;7789;51.364;12.358;2022-12-26T22:03:56;5.87;;;1.53;;
15381;SDS011;7789;51.364;12.358;2022-12-26T22:09:32;5.67;;;1.90;;
15381;SDS011;7789;51.364;12.358;2022-12-26T22:14:42;6.63;;;1.20;;
15381;SDS011;7789;51.364;12.358;2022-12-26T22:19:47;13.23;;;1.67;;
15381;SDS011;7789;51.364;12.358;2022-12-26T22:24:56;10.80;;;1.70;;
15381;SDS011;7789;51.364;12.358;2022-12-26T22:30:00;6.93;;;1.50;;
15381;SDS011;7789;51.364;12.358;2022-12-26T22:35:07;10.77;;;2.27;;
15381;SDS011;7789;51.364;12.358;2022-12-26T22:40:20;4.43;;;1.10;;
15381;SDS011;7789;51.364;12.358;2022-12-26T22:45:25;7.20;;;1.60;;
15381;SDS011;7789;51.364;12.358;2022-12-26T22:50:29;6.30;;;1.60;;
15381;SDS011;7789;51.364;12.358;2022-12-26T22:55:40;8.23;;;1.93;;
15381;SDS011;7789;51.364;12.358;2022-12-26T23:00:49;8.50;;;1.57;;
15381;SDS011;7789;51.364;12.358;2022-12-26T23:05:58;6.90;;;2.30;;
15381;SDS011;7789;51.364;12.358;2022-12-26T23:11:10;12.00;;;2.20;;
15381;SDS011;7789;51.364;12.358;2022-12-26T23:16:18;9.33;;;1.93;;
15381;SDS011;7789;51.364;12.358;2022-12-26T23:21:34;6.97;;;2.00;;
15381;SDS011;7789;51.364;12.358;2022-12-26T23:26:46;7.90;;;1.40;;
15381;SDS011;7789;51.364;12.358;2022-12-26T23:31:56;3.77;;;1.27;;
15381;SDS011;7789;51.364;12.358;2022-12-26T23:37:01;7.70;;;1.53;;
15381;SDS011;7789;51.364;12.358;2022-12-26T23:42:13;8.40;;;1.50;;
15381;SDS011;7789;51.364;12.358;2022-12-26T23:47:20;6.07;;;2.03;;
15381;SDS011;7789;51.364;12.358;2022-12-26T23:52:28;4.73;;;1.53;;
15381;SDS011;7789;51.364;12.358;2022-12-26T23:57:41;7.63;;;1.30;;
